Time;durP1;ratioP1;P1;durP2;ratioP2;P2;SDS_P1;SDS_P2;PMS_P1;PMS_P2;Temp;Humidity;BMP_temperature;BMP_pressure;BME280_temperature;BME280_humidity;BME280_pressure;Samples;Min_cycle;Max_cycle;Signal;HPM_P1;HPM_P2
2022/01/21 00:00:25;;;;;;;17.00;9.00;;;5.50;99.90;;;;;;4955371;29;20184;-81
2022/01/21 00:02:51;;;;;;;12.10;3.37;;;5.40;99.90;;;;;;4938150;29;20233;-81
2022/01/21 00:05:18;;;;;;;12.27;2.70;;;5.30;99.90;;;;;;4938151;29;20636;-81
2022/01/21 00:07:44;;;;;;;10.57;2.47;;;5.20;99.90;;;;;;4937785;29;20197;-81
2022/01/21 00:10:10;;;;;;;8.73;2.00;;;5.30;99.90;;;;;;4938050;29;20175;-81
2022/01/21 00:12:36;;;;;;;8.43;3.30;;;5.50;99.90;;;;;;4937674;29;20179;-81
2022/01/21 00:15:08;;;;;;;10.00;2.67;;;5.40;99.90;;;;;;4937777;29;20175;-81
2022/01/21 00:17:34;;;;;;;13.63;2.43;;;5.50;99.90;;;;;;4937944;29;20208;-81
2022/01/21 00:30:57;;;;;;;12.37;2.90;;;5.00;99.90;;;;;;4955058;29;20175;-82
2022/01/21 00:33:23;;;;;;;10.83;3.37;;;5.00;99.90;;;;;;4937498;29;20175;-81
2022/01/21 00:35:49;;;;;;;13.57;2.60;;;5.10;99.90;;;;;;4937725;29;20524;-81
2022/01/21 00:38:15;;;;;;;16.13;3.23;;;5.40;99.90;;;;;;4937502;29;20183;-81
2022/01/21 00:40:41;;;;;;;14.30;3.07;;;5.20;99.90;;;;;;4937332;29;20184;-82
2022/01/21 00:43:15;;;;;;;15.13;3.00;;;5.10;99.90;;;;;;4937466;29;20235;-82
2022/01/21 00:45:41;;;;;;;13.80;4.17;;;5.30;99.90;;;;;;4937509;29;20171;-82
2022/01/21 00:48:07;;;;;;;17.37;5.07;;;5.20;99.90;;;;;;4937311;29;20659;-81
2022/01/21 00:50:32;;;;;;;8.33;2.90;;;5.30;99.90;;;;;;4954596;29;20570;-81
2022/01/21 00:52:58;;;;;;;16.47;3.60;;;5.40;99.90;;;;;;4937389;29;20191;-81
2022/01/21 00:55:24;;;;;;;13.07;3.40;;;5.30;99.90;;;;;;4936854;29;20190;-81
2022/01/21 00:57:49;;;;;;;12.90;3.17;;;5.30;99.90;;;;;;4937295;29;20175;-81
2022/01/21 01:00:15;;;;;;;16.70;4.00;;;5.20;99.90;;;;;;4954589;29;20183;-81
2022/01/21 01:02:42;;;;;;;12.77;3.07;;;5.20;99.90;;;;;;4954346;29;20298;-81
2022/01/21 01:05:09;;;;;;;10.53;2.73;;;5.10;99.90;;;;;;4937168;29;20234;-82
2022/01/21 01:07:35;;;;;;;13.23;2.63;;;5.00;99.90;;;;;;4936797;29;20632;-81
2022/01/21 01:10:04;;;;;;;12.27;3.00;;;4.90;99.90;;;;;;4937149;29;20195;-82
2022/01/21 01:20:29;;;;;;;16.83;3.20;;;4.60;99.90;;;;;;4954479;29;20171;-81
2022/01/21 01:23:49;;;;;;;16.40;2.33;;;4.60;99.90;;;;;;4937035;29;20195;-81
2022/01/21 01:28:27;;;;;;;14.23;2.97;;;4.80;99.90;;;;;;4954335;29;20276;-81
2022/01/21 01:30:53;;;;;;;15.10;2.90;;;4.60;99.90;;;;;;4937169;29;20259;-81
2022/01/21 01:33:23;;;;;;;17.60;4.03;;;4.70;99.90;;;;;;4936909;29;20277;-81
2022/01/21 01:35:50;;;;;;;10.53;3.17;;;4.70;99.90;;;;;;4937459;29;20172;-81
2022/01/21 01:41:07;;;;;;;15.27;3.20;;;4.80;99.90;;;;;;4954205;29;20274;-81
2022/01/21 01:51:46;;;;;;;24.90;3.13;;;4.80;99.90;;;;;;4954273;29;20571;-81
2022/01/21 01:54:14;;;;;;;16.40;3.13;;;5.00;99.90;;;;;;4936604;29;20172;-81
2022/01/21 01:56:45;;;;;;;10.93;2.63;;;4.90;99.90;;;;;;4954356;29;20231;-81
2022/01/21 01:59:11;;;;;;;13.07;3.00;;;5.00;99.90;;;;;;4936699;29;20183;-81
2022/01/21 02:01:37;;;;;;;11.63;2.73;;;5.00;99.90;;;;;;4936640;29;20282;-81
2022/01/21 02:04:03;;;;;;;12.30;2.90;;;5.00;99.90;;;;;;4953810;29;20590;-82
2022/01/21 02:06:28;;;;;;;9.77;2.23;;;5.00;99.90;;;;;;4937087;29;20190;-81
2022/01/21 02:08:54;;;;;;;11.37;2.90;;;5.10;99.90;;;;;;4939759;29;20531;-81
2022/01/21 02:11:21;;;;;;;13.53;2.47;;;5.10;99.90;;;;;;4957425;29;20206;-81
2022/01/21 02:13:51;;;;;;;13.37;2.83;;;5.10;99.90;;;;;;4939961;29;20498;-82
2022/01/21 02:21:37;;;;;;;13.90;2.50;;;5.30;99.90;;;;;;4957409;29;20218;-81
2022/01/21 02:24:08;;;;;;;13.27;2.60;;;5.20;99.90;;;;;;4957141;29;20172;-81
2022/01/21 02:26:34;;;;;;;12.13;2.73;;;5.30;99.90;;;;;;4957122;29;20175;-81
2022/01/21 02:29:02;;;;;;;13.20;2.40;;;5.40;99.90;;;;;;4956887;29;20551;-81
2022/01/21 02:31:28;;;;;;;16.43;2.80;;;5.50;99.90;;;;;;4957031;29;20644;-81
2022/01/21 02:33:54;;;;;;;10.57;2.20;;;5.60;99.90;;;;;;4939692;29;20181;-81
2022/01/21 02:36:19;;;;;;;17.30;3.43;;;5.50;99.90;;;;;;4939082;29;20278;-81
2022/01/21 02:38:45;;;;;;;8.90;2.10;;;5.50;99.90;;;;;;4939883;29;20528;-81
2022/01/21 02:41:11;;;;;;;11.00;2.83;;;5.50;99.90;;;;;;4939486;29;20219;-81
2022/01/21 02:43:36;;;;;;;13.57;2.50;;;5.30;99.90;;;;;;4939767;29;20187;-81
2022/01/21 02:46:06;;;;;;;13.73;2.43;;;5.40;99.90;;;;;;4956944;29;20203;-82
2022/01/21 11:06:07;;;;;;;12.67;4.37;;;7.30;99.90;;;;;;1480366;23;20397;-92
2022/01/21 11:08:34;;;;;;;12.87;3.30;;;7.30;99.90;;;;;;4887408;29;20217;-96
2022/01/21 11:10:59;;;;;;;11.97;3.47;;;7.40;99.90;;;;;;4905711;29;20183;-96
2022/01/21 11:13:27;;;;;;;11.20;3.70;;;7.50;99.90;;;;;;4902318;29;20205;-95
2022/01/21 11:15:56;;;;;;;13.53;3.50;;;7.50;99.90;;;;;;4899086;29;20218;-94
2022/01/21 11:18:22;;;;;;;14.57;4.27;;;7.50;99.90;;;;;;4898929;29;20670;-95
2022/01/21 11:20:55;;;;;;;14.47;4.27;;;7.50;99.90;;;;;;4899278;29;20186;-93
2022/01/21 11:23:22;;;;;;;15.03;4.33;;;7.50;99.90;;;;;;4903812;29;20655;-94
2022/01/21 11:25:55;;;;;;;15.70;3.30;;;7.50;99.90;;;;;;4902201;29;20655;-95
2022/01/21 11:28:27;;;;;;;13.57;3.60;;;7.50;99.90;;;;;;4902077;29;20193;-96
2022/01/21 11:30:54;;;;;;;11.73;4.00;;;7.40;99.90;;;;;;4900005;29;20284;-95
2022/01/21 11:33:21;;;;;;;17.03;3.80;;;7.20;99.90;;;;;;4916388;29;20647;-94
2022/01/21 11:35:52;;;;;;;12.87;3.70;;;7.10;99.90;;;;;;4917381;29;20195;-96
2022/01/21 11:38:20;;;;;;;17.10;4.67;;;7.10;99.90;;;;;;4919121;29;20185;-96
2022/01/21 11:40:49;;;;;;;17.97;3.87;;;7.30;99.90;;;;;;4918590;29;20332;-96
2022/01/21 11:43:16;;;;;;;12.13;3.60;;;7.40;99.90;;;;;;4917823;29;20211;-92
2022/01/21 11:48:52;;;;;;;13.87;4.27;;;7.70;99.90;;;;;;4908522;29;20212;-93
2022/01/21 11:51:21;;;;;;;15.13;4.60;;;7.80;99.90;;;;;;4903789;29;20263;-93
2022/01/21 11:53:48;;;;;;;11.47;3.40;;;7.80;99.90;;;;;;4901653;29;20217;-92
2022/01/21 11:56:43;;;;;;;12.57;4.33;;;8.00;99.90;;;;;;4902311;29;20192;-95
2022/01/21 11:59:15;;;;;;;15.17;4.83;;;8.10;99.90;;;;;;4901129;29;20547;-93
2022/01/21 12:01:48;;;;;;;15.20;4.77;;;8.20;99.90;;;;;;4916542;29;20213;-93
2022/01/21 12:04:35;;;;;;;22.10;5.17;;;8.30;99.90;;;;;;4916644;29;20263;-95
2022/01/21 12:07:02;;;;;;;11.37;3.27;;;8.40;99.90;;;;;;4900664;29;20285;-95
2022/01/21 12:09:58;;;;;;;13.97;3.87;;;8.50;99.90;;;;;;4900940;29;20181;-94
2022/01/21 12:12:26;;;;;;;9.70;3.67;;;8.50;99.90;;;;;;4897388;29;20238;-94
2022/01/21 12:14:59;;;;;;;13.20;3.50;;;8.50;99.90;;;;;;4900932;29;20561;-93
2022/01/21 12:18:04;;;;;;;13.77;4.20;;;8.50;99.90;;;;;;4901296;29;20183;-95
2022/01/21 12:20:31;;;;;;;10.87;3.43;;;8.30;99.90;;;;;;4900867;29;20611;-93
2022/01/21 12:23:15;;;;;;;18.57;4.30;;;8.20;99.90;;;;;;4900858;29;20227;-93
2022/01/21 12:26:14;;;;;;;12.97;4.27;;;8.20;99.90;;;;;;4900488;29;20269;-93
2022/01/21 12:28:42;;;;;;;16.67;4.80;;;8.30;99.90;;;;;;4900492;29;20190;-93
2022/01/21 12:31:11;;;;;;;17.77;4.10;;;8.30;99.90;;;;;;4900271;29;20230;-94
2022/01/21 12:33:53;;;;;;;14.27;4.27;;;8.20;99.90;;;;;;4897691;29;20179;-95
2022/01/21 12:36:21;;;;;;;13.67;5.23;;;8.20;99.90;;;;;;4896083;29;20553;-96
2022/01/21 12:41:15;;;;;;;14.37;5.70;;;8.10;99.90;;;;;;4898300;29;20222;-95
2022/01/21 15:34:35;;;;;;;13.67;2.97;;;8.50;99.90;;;;;;5896705;23;20193;-88
2022/01/21 18:49:01;;;;;;;17.53;5.57;;;6.50;99.90;;;;;;5698976;23;20226;-87
2022/01/21 18:51:27;;;;;;;16.37;7.40;;;6.50;99.90;;;;;;4953164;29;20222;-87
2022/01/21 18:53:53;;;;;;;20.03;8.13;;;6.40;99.90;;;;;;4953417;29;20242;-88
2022/01/21 18:56:19;;;;;;;9.77;4.53;;;6.50;99.90;;;;;;4951307;29;20187;-87
2022/01/21 18:58:46;;;;;;;14.33;4.83;;;6.50;99.90;;;;;;4927681;29;20199;-88
2022/01/21 19:01:16;;;;;;;12.27;6.27;;;6.50;99.90;;;;;;4945238;29;20194;-85
2022/01/21 19:03:43;;;;;;;15.63;6.33;;;6.60;99.90;;;;;;4944980;29;20248;-87
2022/01/21 19:19:52;;;;;;;16.63;6.67;;;6.70;99.90;;;;;;5953180;23;20213;-87
2022/01/21 19:22:25;;;;;;;13.30;5.30;;;6.70;99.90;;;;;;4958145;28;20223;-81
2022/01/21 19:24:53;;;;;;;18.83;5.73;;;6.60;99.90;;;;;;4974717;28;20173;-83
2022/01/21 19:27:19;;;;;;;10.77;5.53;;;6.50;99.90;;;;;;4957140;28;20330;-81
2022/01/21 19:29:47;;;;;;;16.27;6.57;;;6.50;99.90;;;;;;4956366;28;20265;-81
2022/01/21 19:32:14;;;;;;;13.03;5.30;;;6.50;99.90;;;;;;4969194;28;20202;-80
2022/01/21 19:34:42;;;;;;;14.03;5.30;;;6.60;99.90;;;;;;4973290;28;20210;-80
2022/01/21 19:37:10;;;;;;;12.77;6.03;;;6.60;99.90;;;;;;4955230;28;20325;-80
2022/01/21 19:39:35;;;;;;;14.63;6.43;;;6.60;99.90;;;;;;4957248;28;21341;-80
2022/01/21 19:42:01;;;;;;;12.20;5.40;;;6.60;99.90;;;;;;4957400;28;20302;-81
2022/01/21 19:44:27;;;;;;;12.67;5.57;;;6.60;99.90;;;;;;4974852;28;20171;-80
2022/01/21 19:46:57;;;;;;;14.67;5.67;;;6.60;99.90;;;;;;4954889;28;20753;-80
2022/01/21 19:49:24;;;;;;;17.33;5.63;;;6.50;99.90;;;;;;4953455;28;20585;-80
2022/01/21 19:51:49;;;;;;;18.40;5.60;;;6.40;99.90;;;;;;4955406;28;20202;-80
2022/01/21 19:54:15;;;;;;;10.07;5.17;;;6.40;99.90;;;;;;4956437;28;20186;-80
2022/01/21 19:56:45;;;;;;;15.73;5.10;;;6.40;99.90;;;;;;4973676;28;20619;-81
2022/01/21 20:09:31;;;;;;;17.67;4.93;;;6.50;99.90;;;;;;4974741;28;20684;-80
2022/01/21 20:16:48;;;;;;;23.63;10.13;;;6.50;99.90;;;;;;4973569;28;20206;-85
2022/01/21 20:19:14;;;;;;;32.87;18.27;;;6.50;99.90;;;;;;4956741;28;20178;-82
2022/01/21 20:21:41;;;;;;;11.63;5.27;;;6.50;99.90;;;;;;4957061;28;20618;-83
2022/01/21 20:24:11;;;;;;;13.67;5.53;;;6.50;99.90;;;;;;4949489;28;20187;-83
2022/01/21 20:26:38;;;;;;;23.97;8.93;;;6.50;99.90;;;;;;4953768;28;20218;-83
2022/01/21 20:29:05;;;;;;;15.27;6.63;;;6.60;99.90;;;;;;4956904;28;20187;-83
2022/01/21 20:31:31;;;;;;;10.73;5.60;;;6.60;99.90;;;;;;4953616;28;20190;-82
2022/01/21 20:33:59;;;;;;;15.70;5.40;;;6.50;99.90;;;;;;4956493;28;20631;-83
2022/01/21 20:36:34;;;;;;;15.17;6.60;;;6.50;99.90;;;;;;4956413;28;20266;-83
2022/01/21 20:39:08;;;;;;;10.63;5.40;;;6.50;99.90;;;;;;4955891;28;21208;-83
2022/01/21 20:44:05;;;;;;;17.17;6.40;;;6.60;99.90;;;;;;4973674;28;20617;-83
2022/01/21 20:46:32;;;;;;;12.87;6.07;;;6.60;99.90;;;;;;4955934;28;20183;-83
2022/01/21 20:48:59;;;;;;;15.03;5.30;;;6.60;99.90;;;;;;4956471;28;20221;-83
2022/01/21 20:51:25;;;;;;;14.20;6.47;;;6.50;99.90;;;;;;4956895;28;20179;-83
2022/01/21 20:53:50;;;;;;;14.93;6.67;;;6.50;99.90;;;;;;4969597;28;20194;-83
2022/01/21 20:56:16;;;;;;;17.50;5.60;;;6.50;99.90;;;;;;4972926;28;20190;-82
2022/01/21 20:58:42;;;;;;;18.20;5.83;;;6.40;99.90;;;;;;4972104;28;20695;-83
2022/01/21 21:01:08;;;;;;;23.17;9.57;;;6.40;99.90;;;;;;4956241;28;20193;-83
2022/01/21 21:03:34;;;;;;;14.33;6.40;;;6.50;99.90;;;;;;4956269;28;20313;-83
2022/01/21 21:06:00;;;;;;;22.77;9.83;;;6.60;99.90;;;;;;4955908;28;20623;-83
2022/01/21 21:08:26;;;;;;;19.77;8.43;;;6.70;99.90;;;;;;4956621;28;20621;-83
2022/01/21 21:10:53;;;;;;;57.67;32.47;;;6.80;99.90;;;;;;4972845;28;20175;-81
2022/01/21 21:13:20;;;;;;;32.80;15.00;;;6.90;99.90;;;;;;4955534;28;20182;-84
2022/01/21 21:15:48;;;;;;;31.60;18.40;;;6.90;99.90;;;;;;4956334;28;20183;-83
2022/01/21 21:18:27;;;;;;;16.07;7.83;;;7.00;99.90;;;;;;4956616;28;20226;-82
2022/01/21 21:24:32;;;;;;;16.00;6.63;;;7.00;99.90;;;;;;4963347;28;20199;-83
2022/01/21 21:26:39;;;;;;;13.03;5.90;;;7.00;99.90;;;;;;4965744;28;20194;-83
